createdAt,value
2023-08-11T13:56:39.336Z,2.80
2023-08-11T14:00:40.953Z,3.20
2023-08-11T14:04:42.547Z,2.78
2023-08-11T14:08:44.217Z,2.55
2023-08-11T14:12:47.141Z,2.70
2023-08-11T14:16:48.729Z,2.60
2023-08-11T14:20:50.294Z,3.00
2023-08-11T14:24:54.689Z,2.72
2023-08-11T14:28:58.693Z,2.50
2023-08-11T14:33:00.692Z,2.45
2023-08-11T14:37:02.310Z,2.95
2023-08-11T14:41:03.869Z,2.47
2023-08-11T14:45:08.337Z,2.80
2023-08-11T14:49:09.961Z,2.40
2023-08-11T14:53:11.524Z,3.08
2023-08-11T14:57:13.122Z,2.30
2023-08-11T15:01:17.225Z,2.60
2023-08-11T15:05:19.000Z,2.70
2023-08-11T15:09:20.613Z,2.47
2023-08-11T15:13:22.200Z,2.78
2023-08-11T15:17:25.126Z,2.80
2023-08-11T15:21:26.662Z,2.85
2023-08-11T15:25:28.243Z,2.50
2023-08-11T15:29:29.858Z,2.20
2023-08-11T15:33:32.875Z,2.40
2023-08-11T15:37:34.515Z,2.75
2023-08-11T15:41:36.074Z,2.83
2023-08-11T15:45:37.666Z,2.78
2023-08-11T15:49:40.600Z,2.85
2023-08-11T15:53:42.155Z,2.78
2023-08-11T15:57:43.764Z,2.72
2023-08-11T16:01:55.878Z,2.60
2023-08-11T16:06:06.870Z,2.47
2023-08-11T16:10:09.236Z,2.90
2023-08-11T16:14:10.984Z,2.85
2023-08-11T16:18:12.552Z,2.40
2023-08-11T16:22:15.476Z,2.88
2023-08-11T16:26:17.225Z,2.90
2023-08-11T16:30:18.972Z,2.83
2023-08-11T16:34:23.086Z,2.70
2023-08-11T16:38:26.102Z,2.70
2023-08-11T16:42:27.761Z,3.03
2023-08-11T16:46:29.347Z,2.58
2023-08-11T16:50:30.929Z,2.92
2023-08-11T16:54:33.879Z,2.75
2023-08-11T16:58:35.836Z,2.55
2023-08-11T17:02:37.525Z,3.05
2023-08-11T17:06:39.122Z,2.83
2023-08-11T17:10:42.607Z,2.60
2023-08-11T17:14:44.175Z,2.67
2023-08-11T17:18:46.832Z,2.67
2023-08-11T17:22:49.330Z,2.92
2023-08-11T17:26:52.654Z,2.83
2023-08-11T17:30:54.253Z,2.67
2023-08-11T17:34:58.334Z,2.90
2023-08-11T17:39:00.275Z,3.13
2023-08-11T17:43:03.414Z,3.10
2023-08-11T17:47:08.764Z,2.92
2023-08-11T17:51:10.609Z,3.50
2023-08-11T17:55:12.180Z,3.13
2023-08-11T17:59:15.469Z,3.13
2023-08-11T18:07:18.644Z,2.78
2023-08-11T18:11:20.229Z,3.13
2023-08-11T18:15:23.396Z,3.40
2023-08-11T18:19:25.004Z,3.45
2023-08-11T18:23:26.579Z,3.25
2023-08-11T18:27:30.417Z,3.08
2023-08-11T18:31:34.803Z,3.78
2023-08-11T18:39:37.946Z,3.30
2023-08-11T18:43:39.548Z,3.40
2023-08-11T18:47:42.507Z,3.47
2023-08-11T18:51:44.110Z,3.30
2023-08-11T18:55:45.691Z,4.20
2023-08-11T18:59:47.282Z,3.50
2023-08-11T19:03:50.298Z,3.90
2023-08-11T19:07:51.912Z,3.67
2023-08-11T19:11:53.471Z,3.83
2023-08-11T19:15:55.055Z,3.63
2023-08-11T19:19:57.987Z,4.20
2023-08-11T19:28:01.094Z,3.90
2023-08-11T19:32:02.761Z,4.32
2023-08-11T19:36:05.934Z,3.90
2023-08-11T19:40:08.577Z,3.85
2023-08-11T19:44:10.176Z,4.50
2023-08-11T19:48:11.796Z,4.32
2023-08-11T19:52:14.841Z,3.80
2023-08-11T19:56:16.416Z,4.30
2023-08-11T20:00:18.225Z,4.38
2023-08-11T20:04:19.936Z,4.20
2023-08-11T20:08:23.033Z,3.85
2023-08-11T20:12:24.683Z,4.15
2023-08-11T20:16:26.651Z,4.40
2023-08-11T20:20:28.424Z,4.28
2023-08-11T20:24:34.120Z,4.68
2023-08-11T20:28:35.668Z,4.05
2023-08-11T20:32:37.300Z,4.32
2023-08-11T20:36:38.870Z,4.00
2023-08-11T20:40:41.763Z,4.78
2023-08-11T20:44:43.309Z,4.35
2023-08-11T20:48:44.850Z,4.50
2023-08-11T20:52:46.418Z,3.97
2023-08-11T20:56:49.394Z,4.15
2023-08-11T21:00:51.003Z,4.13
2023-08-11T21:04:52.590Z,3.60
2023-08-11T21:08:54.125Z,4.20
2023-08-11T21:12:57.012Z,4.60
2023-08-11T21:17:01.236Z,4.20
2023-08-11T21:21:04.405Z,4.28
2023-08-11T21:25:06.201Z,4.45
2023-08-11T21:29:09.814Z,4.80
2023-08-11T21:33:11.407Z,4.57
2023-08-11T21:37:13.170Z,4.55
2023-08-11T21:41:14.890Z,4.82
2023-08-11T21:45:17.983Z,4.35
2023-08-11T21:53:23.743Z,5.10
2023-08-11T21:57:25.764Z,4.43
2023-08-11T22:01:28.667Z,4.88
2023-08-11T22:05:31.880Z,4.82
2023-08-11T22:09:33.712Z,3.97
2023-08-11T22:13:35.284Z,4.28
2023-08-11T22:17:38.208Z,4.35
2023-08-11T22:21:39.770Z,4.30
2023-08-11T22:25:41.320Z,4.07
2023-08-11T22:29:42.891Z,4.38
2023-08-11T22:33:45.791Z,4.70
2023-08-11T22:37:47.374Z,4.28
2023-08-11T22:41:48.927Z,4.85
2023-08-11T22:45:50.494Z,5.00
2023-08-11T22:49:53.417Z,4.28
2023-08-11T22:53:54.946Z,4.60
2023-08-11T22:57:56.488Z,4.20
2023-08-11T23:01:58.069Z,4.28
2023-08-11T23:06:00.983Z,4.65
2023-08-11T23:10:02.609Z,4.40
2023-08-11T23:14:04.317Z,4.22
2023-08-11T23:18:05.878Z,3.80
2023-08-11T23:22:08.841Z,4.00
2023-08-11T23:26:10.428Z,4.00
2023-08-11T23:30:12.412Z,4.22
2023-08-11T23:34:13.986Z,4.88
2023-08-11T23:38:16.932Z,4.68
2023-08-11T23:42:18.510Z,4.38
2023-08-11T23:46:20.076Z,4.18
2023-08-11T23:50:21.724Z,4.57
2023-08-11T23:54:24.610Z,4.00
2023-08-11T23:58:26.199Z,4.00
